VK4VP-5 Weather Reports


time (UTC)temp
C
wind
direction
speed
KPH
gust
KPH
rain 1hr
cm
rain 24hr
cm
rain mn
cm
humidity
%
barometer
mb
20190419020941 21 149 3.2 14.5 1.09 1.27 1.27 95 1017.1
20190419020853 21 149 3.2 14.5 1.09 1.27 1.27 95 1017.1
20190419015941 21 144 4.8 17.7 1.09 1.27 1.27 94 1017.3
20190419014942 21 135 1.6 14.5 1.07 1.24 1.24 94 1017.3
20190419013942 21 115 6.4 20.9 1.02 1.12 1.12 92 1017.8
20190419013854 21 114 6.4 20.9 0.97 1.09 1.09 91 1017.8
20190419012941 22 151 6.4 19.3 0.08 0.20 0.20 92 1017.7
20190419012857 22 152 9.7 19.3 0.08 0.20 0.20 91 1017.7
20190419011942 22 160 3.2 22.5 0.08 0.20 0.20 91 1017.7
20190419011853 22 160 4.8 22.5 0.08 0.20 0.20 90 1017.7
20190419010942 22 149 9.7 29.0 0.05 0.18 0.18 90 1017.8
20190419005941 22 148 6.4 22.5 0.05 0.18 0.18 92 1018.1
20190419004941 22 148 6.4 24.1 0.05 0.18 0.18 91 1018.1
20190419003942 22 142 4.8 19.3 0.00 0.10 0.10 91 1018.3
20190419003854 22 142 4.8 19.3 0.00 0.10 0.10 92 1018.3
20190419002941 22 153 11.3 27.4 0.00 0.10 0.10 90 1018.3
20190419001941 22 170 4.8 20.9 0.00 0.10 0.10 89 1018.3
20190419001857 22 169 4.8 20.9 0.00 0.10 0.10 89 1018.3
20190419000942 22 157 3.2 17.7 0.00 0.10 0.10 90 1018.4
20190418235942 21 150 4.8 17.7 0.00 0.10 0.10 90 1018.4
20190418234941 22 155 4.8 19.3 0.00 0.10 0.10 90 1018.4
20190418233941 22 203 3.2 16.1 0.00 0.10 0.10 90 1018.5
20190418232942 22 166 3.2 24.1 0.00 0.10 0.10 90 1018.5
20190418231942 22 158 9.7 24.1 0.00 0.08 0.08 86 1018.5
20190418230942 22 171 4.8 16.1 0.00 0.08 0.08 87 1018.4
20190418225941 22 162 9.7 22.5 0.00 0.08 0.08 88 1018.4
20190418224941 21 171 4.8 30.6 0.00 0.08 0.08 89 1018.4
20190418224853 21 168 4.8 19.3 0.00 0.08 0.08 89 1018.4
20190418223940 21 162 4.8 19.3 0.00 0.08 0.08 90 1018.3
20190418222942 21 169 4.8 22.5 0.00 0.08 0.08 89 1018.2
20190418221941 21 175 6.4 22.5 0.00 0.08 0.08 91 1018.2
20190418220941 20 174 6.4 24.1 0.00 0.08 0.08 92 1018.2
20190418215941 20 172 3.2 16.1 0.00 0.08 0.08 92 1018.2
20190418214942 20 169 3.2 16.1 0.00 0.08 0.08 93 1018.2
20190418213942 20 181 4.8 19.3 0.00 0.08 0.08 92 1017.9
20190418212941 20 159 3.2 19.3 0.00 0.08 0.08 93 1017.8
20190418211941 19 117 1.6 16.1 0.00 0.08 0.08 94 1017.8
20190418211851 19 118 1.6 16.1 0.00 0.08 0.08 94 1017.8
20190418210941 19 116 3.2 16.1 0.00 0.08 0.08 94 1017.8
20190418205941 19 148 4.8 16.1 0.00 0.08 0.08 94 1017.7
20190418204942 18 175 3.2 17.7 0.00 0.08 0.08 94 1017.7
20190418203942 18 167 3.2 16.1 0.00 0.08 0.08 94 1017.4
20190418202941 18 163 3.2 16.1 0.00 0.08 0.08 94 1017.3
20190418201941 18 164 3.2 16.1 0.00 0.08 0.08 94 1017.3
20190418200941 18 163 3.2 12.9 0.00 0.08 0.08 94 1017.3
20190418200855 18 163 3.2 12.9 0.00 0.08 0.08 94 1017.3
20190418195942 18 163 4.8 20.9 0.00 0.08 0.08 94 1017.2
20190418194941 18 155 4.8 24.1 0.00 0.08 0.08 94 1017.2
20190418193942 18 150 3.2 20.9 0.00 0.08 0.08 94 1017.0
20190418192942 18 149 1.6 17.7 0.00 0.08 0.08 94 1016.9
20190418191942 18 146 3.2 17.7 0.00 0.08 0.08 94 1016.9
20190418190943 18 145 3.2 17.7 0.00 0.08 0.08 94 1016.8
20190418190905 18 145 3.2 17.7 0.00 0.08 0.08 94 1016.8
20190418185942 18 143 3.2 17.7 0.00 0.08 0.08 94 1016.7
20190418184941 18 141 4.8 19.3 0.00 0.08 0.08 94 1016.7
20190418183942 18 139 3.2 16.1 0.00 0.08 0.08 94 1016.6
20190418182941 18 139 1.6 16.1 0.00 0.08 0.08 94 1016.6
20190418181942 18 140 1.6 12.9 0.00 0.08 0.08 94 1016.6
20190418180942 18 140 4.8 16.1 0.00 0.08 0.08 94 1016.7
20190418175941 18 139 3.2 16.1 0.00 0.08 0.08 94 1016.6
20190418174941 18 139 1.6 11.3 0.00 0.08 0.08 94 1016.6
20190418173942 18 138 3.2 17.7 0.00 0.08 0.08 94 1016.8
20190418173857 18 137 4.8 17.7 0.00 0.08 0.08 94 1016.8
20190418172941 18 137 3.2 16.1 0.00 0.08 0.08 93 1016.8
20190418172854 18 137 3.2 16.1 0.00 0.08 0.08 93 1016.8
20190418171942 18 137 1.6 14.5 0.00 0.08 0.08 93 1016.8
20190418171853 18 137 3.2 14.5 0.00 0.08 0.08 93 1016.8
20190418170942 18 137 3.2 14.5 0.00 0.08 0.08 93 1016.9
20190418165943 18 127 3.2 19.3 0.00 0.08 0.08 93 1016.9
20190418164941 18 115 1.6 16.1 0.00 0.08 0.08 93 1016.9
20190418164857 18 115 1.6 11.3 0.00 0.08 0.08 93 1016.9
20190418163941 19 114 1.6 14.5 0.00 0.08 0.08 93 1017.0
20190418162941 19 114 0.0 16.1 0.05 0.08 0.08 93 1017.3
20190418162858 19 114 0.0 16.1 0.05 0.08 0.08 93 1017.3
20190418161952 19 114 0.0 11.3 0.08 0.08 0.08 92 1017.3
20190418160941 19 114 0.0 11.3 0.05 0.05 0.05 92 1017.3
20190418155942 19 114 0.0 9.7 0.05 0.05 0.05 92 1017.4
20190418154942 19 114 0.0 1.6 0.05 0.05 0.05 92 1017.4
20190418153941 19 113 0.0 3.2 0.05 0.05 0.05 91 1017.7
20190418152941 19 114 0.0 0.0 0.00 0.00 0.00 90 1017.8
20190418152856 19 114 0.0 0.0 0.00 0.00 0.00 90 1017.8
20190418151941 19 113 0.0 6.4 0.00 0.00 0.00 90 1017.8
20190418151858 19 114 0.0 6.4 0.00 0.00 0.00 90 1017.8
20190418150942 19 114 0.0 9.7 0.00 0.00 0.00 90 1017.8
20190418145942 19 114 0.0 6.4 0.00 0.00 0.00 90 1017.9
20190418144942 19 114 1.6 11.3 0.00 0.00 0.00 90 1017.9
20190418144858 19 114 0.0 11.3 0.00 0.00 0.00 90 1017.9
20190418143942 20 114 0.0 3.2 0.00 0.00 0.00 90 1018.1
20190418143857 20 113 0.0 3.2 0.00 0.00 0.00 90 1018.1
20190418142942 20 114 1.6 14.5 0.00 0.00 0.00 90 1018.1
20190418141941 20 114 1.6 16.1 0.00 0.00 0.00 91 1018.1
20190418140942 20 114 0.0 11.3 0.00 0.00 0.00 91 1018.3
20190418135941 20 114 0.0 9.7 0.00 0.00 0.00 91 1018.3
20190418135858 20 114 0.0 9.7 0.00 0.00 0.00 91 1018.3
20190418134941 20 114 0.0 6.4 0.00 0.00 0.00 91 1018.3
20190418133941 20 114 0.0 6.4 0.00 0.00 0.00 91 1018.3
20190418133852 20 114 0.0 6.4 0.00 0.00 0.00 91 1018.3
20190418132942 20 114 0.0 6.4 0.00 0.00 0.00 91 1018.4
20190418132858 20 114 0.0 6.4 0.00 0.00 0.00 91 1018.4
20190418131941 20 114 0.0 4.8 0.00 0.00 0.00 90 1018.4
20190418130941 20 113 0.0 4.8 0.00 0.00 0.00 90 1018.5
20190418125941 20 113 0.0 3.2 0.00 0.23 0.00 90 1018.4
20190418124941 20 114 0.0 4.8 0.00 0.23 0.00 90 1018.4
20190418123942 20 114 0.0 3.2 0.00 0.23 0.00 90 1018.5
20190418122941 20 114 0.0 4.8 0.00 0.33 0.00 89 1018.5
20190418121943 20 114 0.0 3.2 0.00 0.33 0.00 88 1018.5
20190418120942 20 114 0.0 3.2 0.00 0.66 0.00 88 1018.5
20190418115941 20 114 0.0 3.2 0.00 0.66 0.00 88 1018.5
20190418114941 20 113 0.0 1.6 0.00 0.66 0.00 88 1018.5
20190418113941 20 0 0.0 0.0 0.00 0.66 0.00 88 1018.6
20190418112943 20 0 0.0 0.0 0.00 0.66 0.00 87 1018.6
20190418111941 20 113 0.0 3.2 0.00 0.66 0.00 87 1018.6
20190418110942 20 113 0.0 1.6 0.00 0.66 0.00 87 1018.6
20190418105942 21 113 0.0 4.8 0.00 0.66 0.00 86 1018.4
20190418104942 21 114 0.0 3.2 0.00 0.66 0.00 86 1018.4
20190418103941 21 114 0.0 3.2 0.00 0.66 0.00 85 1018.4
20190418102942 21 0 0.0 0.0 0.00 0.66 0.00 83 1018.3
20190418101942 21 0 0.0 0.0 0.00 0.66 0.00 81 1018.3
20190418100941 22 0 0.0 0.0 0.00 0.66 0.00 80 1018.3
20190418095942 22 114 0.0 0.0 0.00 0.66 0.00 80 1018.2
20190418095900 22 114 0.0 0.0 0.00 0.66 0.00 80 1018.2
20190418094941 22 113 0.0 1.6 0.00 0.66 0.00 79 1018.2
20190418093942 22 114 0.0 14.5 0.00 0.66 0.00 79 1018.1
20190418092941 22 0 0.0 0.0 0.00 0.66 0.00 78 1017.9
20190418091942 22 114 0.0 16.1 0.00 0.66 0.00 77 1017.9
20190418090942 22 114 0.0 9.7 0.00 0.66 0.00 77 1017.8
20190418090851 22 113 0.0 9.7 0.00 0.66 0.00 77 1017.8
20190418085942 22 114 1.6 14.5 0.00 0.66 0.00 77 1017.6
20190418084942 22 113 0.0 17.7 0.00 0.66 0.00 77 1017.6
20190418084858 22 113 0.0 17.7 0.00 0.66 0.00 77 1017.6
20190418083942 22 112 0.0 14.5 0.00 0.66 0.00 78 1017.4
20190418082942 22 111 3.2 16.1 0.00 0.66 0.00 78 1017.3
20190418081942 22 110 0.0 11.3 0.00 0.66 0.00 78 1017.3
20190418080942 23 110 1.6 16.1 0.00 0.66 0.00 78 1017.2
20190418080852 23 110 1.6 16.1 0.00 0.66 0.00 78 1017.2
20190418075942 23 110 0.0 11.3 0.00 0.66 0.00 78 1016.8
20190418074943 23 109 0.0 9.7 0.00 0.66 0.00 78 1016.8
20190418073942 23 135 0.0 11.3 0.00 0.66 0.00 78 1016.6
20190418072942 23 134 3.2 12.9 0.00 0.66 0.00 77 1016.4
20190418071941 23 122 3.2 19.3 0.00 0.66 0.00 77 1016.4
20190418070942 23 115 3.2 16.1 0.00 0.66 0.00 77 1016.2
20190418070851 23 115 4.8 16.1 0.00 0.66 0.00 78 1016.2
20190418065942 23 100 3.2 17.7 0.00 0.66 0.00 78 1016.2
20190418064940 23 126 9.7 24.1 0.00 0.66 0.00 77 1016.2
20190418063942 23 131 4.8 22.5 0.00 0.66 0.00 76 1016.1
20190418062941 23 130 4.8 17.7 0.00 0.66 0.00 76 1016.1
20190418062858 23 129 3.2 17.7 0.00 0.66 0.00 76 1016.1
20190418061941 23 136 4.8 24.1 0.00 0.66 0.00 75 1016.1
20190418061852 23 136 4.8 24.1 0.00 0.66 0.00 75 1016.1
20190418060941 23 137 9.7 20.9 0.00 0.66 0.00 75 1016.0
20190418055940 24 138 4.8 20.9 0.00 0.66 0.00 74 1015.9
20190418055859 24 142 4.8 20.9 0.00 0.66 0.00 74 1015.9
20190418054941 24 106 6.4 22.5 0.00 0.66 0.00 74 1015.9
20190418054857 24 105 6.4 22.5 0.00 0.66 0.00 74 1015.9
20190418053940 24 111 9.7 20.9 0.00 0.66 0.00 73 1015.9
20190418052941 24 115 4.8 20.9 0.00 0.66 0.00 73 1016.1
20190418051940 24 85 6.4 6.4 0.00 0.66 0.00 72 1016.1
20190418050520 25 122 9.7 20.9 0.00 0.66 0.00 71 1016.1
20190418045519 25 131 6.4 17.7 0.00 0.66 0.00 72 1016.1
20190418044521 25 127 12.9 29.0 0.00 0.66 0.00 72 1016.1
20190418043519 25 144 6.4 20.9 0.00 0.66 0.00 72 1016.1
20190418042520 25 147 11.3 30.6 0.00 0.66 0.00 70 1016.0
20190418041521 25 146 11.3 19.3 0.00 0.66 0.00 70 1016.1
20190418041411 25 149 11.3 22.5 0.00 0.66 0.00 71 1016.1
20190418040520 25 152 12.9 27.4 0.00 0.66 0.00 70 1016.1
20190418035521 25 150 9.7 20.9 0.00 0.66 0.00 70 1016.2
20190418034521 24 144 12.9 24.1 0.00 0.66 0.00 71 1016.3
20190418033520 24 135 12.9 29.0 0.00 0.66 0.00 71 1016.3
20190418032521 24 128 11.3 27.4 0.00 0.66 0.00 71 1016.3
20190418031520 24 129 11.3 24.1 0.00 0.66 0.00 72 1016.4
20190418030519 24 122 9.7 30.6 0.00 0.66 0.00 72 1016.4
20190418030405 24 124 9.7 30.6 0.00 0.66 0.00 72 1016.4
20190418025520 24 120 12.9 24.1 0.00 0.66 0.00 72 1016.6
20190418024519 25 144 9.7 19.3 0.00 0.66 0.00 71 1016.8
20190418023520 25 144 9.7 20.9 0.00 0.66 0.00 71 1016.8
20190418022518 24 140 12.9 24.1 0.00 0.66 0.00 71 1017.1